Time;durP1;ratioP1;P1;durP2;ratioP2;P2;SDS_P1;SDS_P2;PMS_P1;PMS_P2;Temp;Humidity;BMP_temperature;BMP_pressure;BME280_temperature;BME280_humidity;BME280_pressure;Samples;Min_cycle;Max_cycle;Signal;HPM_P1;HPM_P2
2022/07/09 00:02:08;;;;;;;8.05;3.42;;;19.10;99.90;;;;;;5032576;28;20156;-77
2022/07/09 00:04:36;;;;;;;4.13;3.33;;;19.10;99.90;;;;;;5016069;28;20049;-75
2022/07/09 00:07:03;;;;;;;10.50;3.83;;;19.00;99.90;;;;;;5050581;28;20052;-75
2022/07/09 00:09:31;;;;;;;7.05;3.20;;;18.90;99.90;;;;;;5050454;28;20111;-75
2022/07/09 00:12:00;;;;;;;9.25;3.55;;;18.90;99.90;;;;;;5032480;28;20049;-75
2022/07/09 00:14:29;;;;;;;11.32;3.78;;;18.90;99.90;;;;;;5016128;28;20072;-75
2022/07/09 00:16:56;;;;;;;7.10;3.70;;;18.90;99.90;;;;;;5016574;28;20051;-76
2022/07/09 00:19:24;;;;;;;5.68;2.92;;;18.90;99.90;;;;;;5016145;28;20584;-76
2022/07/09 00:21:51;;;;;;;11.00;3.40;;;18.90;99.90;;;;;;5050242;28;20059;-76
2022/07/09 00:24:19;;;;;;;9.73;4.47;;;18.80;99.90;;;;;;5032464;28;20427;-75
2022/07/09 00:26:46;;;;;;;7.32;3.47;;;18.80;99.90;;;;;;5032081;28;20416;-75
2022/07/09 00:29:15;;;;;;;4.65;3.50;;;18.80;99.90;;;;;;5049735;28;20045;-75
2022/07/09 00:31:45;;;;;;;9.98;3.58;;;18.70;99.90;;;;;;5016098;28;20361;-75
2022/07/09 00:34:13;;;;;;;8.95;3.67;;;18.60;99.90;;;;;;5050766;28;20048;-75
2022/07/09 00:36:41;;;;;;;10.02;3.92;;;18.50;99.90;;;;;;5050330;28;20045;-76
2022/07/09 00:39:08;;;;;;;12.00;3.83;;;18.50;99.90;;;;;;5050197;28;20048;-76
2022/07/09 00:41:36;;;;;;;5.72;3.75;;;18.40;99.90;;;;;;5016062;28;20103;-75
2022/07/09 00:44:03;;;;;;;4.43;3.30;;;18.40;99.90;;;;;;5050363;28;20045;-75
2022/07/09 00:46:32;;;;;;;8.10;3.65;;;18.30;99.90;;;;;;5032386;28;20210;-76
2022/07/09 00:49:03;;;;;;;5.60;3.65;;;18.30;99.90;;;;;;5050729;28;20056;-76
2022/07/09 00:51:32;;;;;;;7.80;3.22;;;18.20;99.90;;;;;;5016325;28;20432;-76
2022/07/09 00:54:01;;;;;;;7.25;3.22;;;18.10;99.90;;;;;;5050454;28;20049;-76
2022/07/09 00:56:29;;;;;;;5.65;2.83;;;18.10;99.90;;;;;;5032146;28;20545;-75
2022/07/09 00:58:57;;;;;;;4.22;2.60;;;18.00;99.90;;;;;;5032049;28;20075;-74
2022/07/09 01:01:25;;;;;;;10.75;4.30;;;18.00;99.90;;;;;;5049694;28;20077;-75
2022/07/09 01:03:53;;;;;;;9.80;3.20;;;18.00;99.90;;;;;;5050114;28;20135;-76
2022/07/09 01:06:22;;;;;;;12.25;4.10;;;17.90;99.90;;;;;;5049999;28;20583;-75
2022/07/09 01:08:49;;;;;;;6.65;3.75;;;17.90;99.90;;;;;;5050197;28;20052;-76
2022/07/09 01:11:17;;;;;;;9.38;4.13;;;17.90;99.90;;;;;;5031722;28;20045;-75
2022/07/09 01:13:44;;;;;;;7.75;4.00;;;17.90;99.90;;;;;;5032020;28;20143;-75
2022/07/09 01:16:16;;;;;;;10.15;3.83;;;17.90;99.90;;;;;;5050379;28;20144;-76
2022/07/09 01:18:45;;;;;;;8.50;3.80;;;17.80;99.90;;;;;;5050330;28;20060;-76
2022/07/09 01:21:14;;;;;;;10.15;6.13;;;17.80;99.90;;;;;;5049996;28;20523;-75
2022/07/09 01:23:41;;;;;;;12.25;4.13;;;17.70;99.90;;;;;;5015654;28;20063;-75
2022/07/09 01:26:09;;;;;;;7.55;3.90;;;17.70;99.90;;;;;;5015746;28;20056;-75
2022/07/09 01:28:37;;;;;;;9.40;5.90;;;17.70;99.90;;;;;;5050195;28;20410;-75
2022/07/09 01:31:04;;;;;;;8.00;4.40;;;17.60;99.90;;;;;;5049662;28;20445;-75
2022/07/09 01:33:33;;;;;;;7.82;4.18;;;17.60;99.90;;;;;;5050725;28;20060;-75
2022/07/09 01:36:00;;;;;;;10.85;4.35;;;17.60;99.90;;;;;;5031708;28;20532;-75
2022/07/09 01:38:29;;;;;;;9.95;4.22;;;17.60;99.90;;;;;;5015459;28;20152;-75
2022/07/09 01:40:57;;;;;;;8.13;4.82;;;17.60;99.90;;;;;;5051044;28;20407;-74
2022/07/09 01:43:25;;;;;;;11.60;4.28;;;17.60;99.90;;;;;;5034952;28;20469;-75
2022/07/09 01:45:52;;;;;;;10.40;4.70;;;17.50;99.90;;;;;;5018906;28;20515;-74
2022/07/09 01:48:20;;;;;;;10.98;4.78;;;17.50;99.90;;;;;;5035023;28;20045;-74
2022/07/09 01:50:47;;;;;;;6.70;3.85;;;17.40;99.90;;;;;;5052785;28;20041;-74
2022/07/09 01:53:15;;;;;;;7.43;3.70;;;17.40;99.90;;;;;;5035771;28;20075;-74
2022/07/09 01:55:44;;;;;;;9.18;4.28;;;17.30;99.90;;;;;;5018856;28;20051;-74
2022/07/09 01:58:13;;;;;;;9.73;3.95;;;17.30;99.90;;;;;;5035113;28;20051;-75
2022/07/09 02:00:41;;;;;;;6.68;3.70;;;17.30;99.90;;;;;;5034988;28;20048;-74
2022/07/09 02:03:08;;;;;;;6.35;3.88;;;17.30;99.90;;;;;;5052969;28;20059;-76
2022/07/09 02:05:36;;;;;;;6.13;4.78;;;17.30;99.90;;;;;;5018919;28;20075;-75
2022/07/09 02:08:04;;;;;;;6.68;4.25;;;17.30;99.90;;;;;;5034890;28;20049;-74
2022/07/09 02:10:31;;;;;;;7.75;4.05;;;17.30;99.90;;;;;;5052478;28;20076;-74
2022/07/09 02:13:00;;;;;;;8.10;3.78;;;17.20;99.90;;;;;;5018353;28;20152;-74
2022/07/09 02:15:28;;;;;;;7.85;3.30;;;17.20;99.90;;;;;;5034728;28;20127;-75
2022/07/09 02:17:55;;;;;;;6.93;4.05;;;17.20;99.90;;;;;;5052782;28;20140;-74
2022/07/09 02:20:22;;;;;;;9.20;3.95;;;17.30;99.90;;;;;;5018458;28;20114;-73
2022/07/09 02:22:50;;;;;;;6.63;3.83;;;17.30;99.90;;;;;;5034841;28;20085;-73
2022/07/09 02:25:17;;;;;;;10.40;4.13;;;17.30;99.90;;;;;;5018112;28;20053;-74
2022/07/09 02:27:45;;;;;;;9.90;4.38;;;17.40;99.90;;;;;;5034660;28;20139;-73
2022/07/09 02:30:14;;;;;;;6.43;4.00;;;17.40;99.90;;;;;;5052854;28;20053;-74
2022/07/09 02:32:41;;;;;;;8.05;3.92;;;17.40;99.90;;;;;;5017915;28;20049;-73
2022/07/09 02:35:09;;;;;;;7.18;4.28;;;17.50;99.90;;;;;;5034342;28;20049;-73
2022/07/09 02:37:36;;;;;;;4.88;3.63;;;17.50;99.90;;;;;;5017527;28;20151;-73
2022/07/09 02:40:05;;;;;;;10.57;4.03;;;17.60;99.90;;;;;;5052823;28;20079;-73
2022/07/09 02:42:32;;;;;;;10.05;4.63;;;17.60;99.90;;;;;;5051694;28;20501;-73
2022/07/09 02:45:00;;;;;;;7.45;3.80;;;17.70;99.90;;;;;;5034161;28;20052;-74
2022/07/09 02:47:28;;;;;;;6.22;4.03;;;17.70;99.90;;;;;;5033838;28;20529;-74
2022/07/09 02:49:56;;;;;;;6.70;4.55;;;17.70;99.90;;;;;;5052461;28;20422;-74
2022/07/09 02:52:23;;;;;;;8.73;5.30;;;17.60;99.90;;;;;;5033587;28;20429;-74
2022/07/09 02:54:51;;;;;;;9.07;4.57;;;17.60;99.90;;;;;;5034203;28;20049;-74
2022/07/09 02:57:18;;;;;;;8.35;5.20;;;17.60;99.90;;;;;;5050628;28;20052;-75
2022/07/09 02:59:46;;;;;;;10.48;4.90;;;17.60;99.90;;;;;;5051772;28;20417;-76
2022/07/09 03:02:13;;;;;;;7.95;4.43;;;17.60;99.90;;;;;;5033412;28;20512;-75
2022/07/09 03:04:42;;;;;;;10.55;4.50;;;17.60;99.90;;;;;;5033481;28;20059;-75
2022/07/09 03:07:10;;;;;;;7.30;4.30;;;17.60;99.90;;;;;;5034122;28;20099;-75
2022/07/09 03:09:37;;;;;;;8.32;4.45;;;17.50;99.90;;;;;;5033974;28;20545;-75
2022/07/09 03:12:06;;;;;;;7.05;4.32;;;17.50;99.90;;;;;;5051449;28;20103;-75
2022/07/09 03:14:33;;;;;;;8.73;4.82;;;17.50;99.90;;;;;;5051600;28;20056;-75
2022/07/09 03:17:01;;;;;;;10.85;5.18;;;17.40;99.90;;;;;;5033768;28;20417;-75
2022/07/09 03:19:28;;;;;;;11.30;4.60;;;17.40;99.90;;;;;;5051941;28;20155;-75
2022/07/09 03:21:57;;;;;;;9.52;4.60;;;17.30;99.90;;;;;;5033962;28;20132;-75
2022/07/09 03:24:24;;;;;;;12.40;5.45;;;17.30;99.90;;;;;;5051645;28;20055;-74
2022/07/09 03:26:52;;;;;;;13.32;6.50;;;17.30;99.90;;;;;;5051789;28;20474;-75
2022/07/09 03:29:20;;;;;;;9.23;5.15;;;17.30;99.90;;;;;;5051511;28;20592;-75
2022/07/09 03:31:47;;;;;;;13.90;5.07;;;17.30;99.90;;;;;;5033852;28;20044;-75
2022/07/09 03:34:15;;;;;;;7.18;4.95;;;17.40;99.90;;;;;;5016810;28;20129;-75
2022/07/09 03:36:42;;;;;;;8.23;5.00;;;17.40;99.90;;;;;;5033006;28;20049;-75
2022/07/09 03:39:11;;;;;;;13.15;6.13;;;17.40;99.90;;;;;;5051061;28;20049;-75
2022/07/09 03:41:39;;;;;;;10.38;6.15;;;17.50;99.90;;;;;;5032891;28;20049;-74
2022/07/09 03:44:06;;;;;;;9.27;5.85;;;17.40;99.90;;;;;;5050588;28;20055;-74
2022/07/09 03:46:34;;;;;;;14.70;5.32;;;17.50;99.90;;;;;;5033042;28;20049;-74
2022/07/09 03:49:01;;;;;;;9.85;4.50;;;17.60;99.90;;;;;;5051053;28;20056;-74
2022/07/09 03:51:28;;;;;;;8.48;4.22;;;17.60;99.90;;;;;;5016476;28;20040;-75
2022/07/09 03:53:56;;;;;;;6.30;4.03;;;17.60;99.90;;;;;;5033065;28;20053;-74
2022/07/09 03:56:25;;;;;;;8.60;3.88;;;17.70;99.90;;;;;;5015583;28;20076;-75
2022/07/09 03:58:52;;;;;;;8.15;4.13;;;17.80;99.90;;;;;;5050783;28;20519;-75
2022/07/09 04:01:20;;;;;;;7.50;3.63;;;17.90;99.90;;;;;;5032780;28;20143;-74
2022/07/09 04:03:47;;;;;;;7.63;3.50;;;18.00;99.90;;;;;;5032012;28;20311;-75
2022/07/09 04:06:15;;;;;;;8.65;3.78;;;18.00;99.90;;;;;;5032141;28;20056;-74
2022/07/09 04:08:43;;;;;;;12.57;5.03;;;18.10;99.90;;;;;;5050607;28;20053;-75
2022/07/09 04:11:11;;;;;;;14.20;4.20;;;18.10;99.90;;;;;;5015988;28;20052;-74
2022/07/09 04:13:40;;;;;;;10.13;4.47;;;18.10;99.90;;;;;;5032075;28;20060;-75
2022/07/09 04:16:08;;;;;;;10.50;5.03;;;18.20;99.90;;;;;;5031841;28;20428;-74
2022/07/09 04:18:36;;;;;;;11.77;3.92;;;18.30;99.90;;;;;;5032512;28;20484;-75
2022/07/09 04:21:04;;;;;;;7.32;4.03;;;18.40;99.90;;;;;;5032319;28;20526;-75
2022/07/09 04:23:31;;;;;;;5.97;3.47;;;18.60;99.90;;;;;;5032151;28;20417;-75
2022/07/09 04:25:59;;;;;;;7.55;3.40;;;18.90;99.90;;;;;;5015586;28;20045;-76
2022/07/09 04:28:27;;;;;;;5.20;3.58;;;19.00;99.90;;;;;;5046868;28;20056;-75
2022/07/09 04:30:57;;;;;;;8.10;2.80;;;19.30;99.90;;;;;;5030591;28;20139;-76
2022/07/09 04:33:26;;;;;;;8.57;3.45;;;19.40;99.90;;;;;;5028370;28;20049;-75
2022/07/09 04:35:54;;;;;;;8.63;3.75;;;19.50;99.90;;;;;;5048675;28;20053;-76
2022/07/09 04:38:21;;;;;;;9.30;3.20;;;19.60;99.90;;;;;;5049087;28;20144;-75
2022/07/09 04:40:49;;;;;;;3.70;2.65;;;19.80;99.90;;;;;;5049245;28;20048;-75
2022/07/09 04:43:16;;;;;;;6.00;2.70;;;19.80;99.90;;;;;;5049311;28;20428;-76
2022/07/09 04:45:44;;;;;;;7.90;2.88;;;19.90;99.90;;;;;;5049819;28;20053;-75
2022/07/09 04:48:13;;;;;;;3.55;2.00;;;19.90;99.90;;;;;;5031763;28;20045;-75
2022/07/09 04:50:40;;;;;;;9.20;2.78;;;19.80;99.90;;;;;;5049073;28;20045;-75
2022/07/09 04:53:08;;;;;;;8.30;2.47;;;19.80;99.90;;;;;;5014101;28;20057;-76
2022/07/09 04:55:36;;;;;;;9.30;2.95;;;19.80;99.90;;;;;;5048584;28;20147;-76
2022/07/09 04:58:03;;;;;;;8.38;2.58;;;19.80;99.90;;;;;;5014244;28;20421;-75
2022/07/09 05:00:32;;;;;;;6.40;2.58;;;19.80;99.90;;;;;;5014911;28;20053;-75
2022/07/09 05:03:00;;;;;;;7.30;2.53;;;19.80;99.90;;;;;;5049229;28;20114;-75
2022/07/09 05:05:29;;;;;;;6.07;2.80;;;19.80;99.90;;;;;;5047352;28;20500;-75
2022/07/09 05:07:56;;;;;;;6.78;2.58;;;19.80;99.90;;;;;;5039186;28;20099;-76
2022/07/09 05:10:24;;;;;;;8.45;2.40;;;19.80;99.90;;;;;;5045766;28;20495;-75
2022/07/09 05:12:51;;;;;;;6.47;3.10;;;19.80;99.90;;;;;;5048597;28;20053;-76
2022/07/09 05:15:19;;;;;;;10.85;5.85;;;19.90;99.90;;;;;;5048670;28;20082;-76
2022/07/09 05:17:46;;;;;;;8.27;2.42;;;19.90;99.90;;;;;;5031763;28;20049;-75
2022/07/09 05:20:14;;;;;;;6.07;2.22;;;20.00;99.90;;;;;;5042719;28;20041;-75
2022/07/09 05:22:42;;;;;;;9.75;2.58;;;20.10;99.90;;;;;;5052072;28;20059;-74
2022/07/09 05:25:10;;;;;;;14.27;3.05;;;20.20;99.90;;;;;;5053044;28;20057;-74
2022/07/09 05:27:45;;;;;;;8.30;2.95;;;20.30;99.90;;;;;;5017168;28;20049;-74
2022/07/09 05:30:15;;;;;;;13.05;3.30;;;20.50;99.90;;;;;;5034404;28;20099;-74
2022/07/09 05:32:43;;;;;;;10.77;6.32;;;20.60;99.90;;;;;;5029120;28;20049;-75
2022/07/09 05:35:10;;;;;;;7.65;2.88;;;20.80;99.90;;;;;;5017247;28;20541;-75
2022/07/09 05:37:44;;;;;;;7.53;2.75;;;20.90;99.90;;;;;;5051234;28;20186;-75
2022/07/09 05:40:13;;;;;;;12.75;2.28;;;21.20;99.90;;;;;;5052024;28;20512;-74
2022/07/09 05:42:40;;;;;;;11.52;2.60;;;21.30;99.90;;;;;;5014420;28;20532;-76
2022/07/09 05:45:09;;;;;;;4.25;2.53;;;21.60;99.90;;;;;;5051012;28;20136;-75
2022/07/09 05:47:37;;;;;;;8.40;2.60;;;21.90;99.90;;;;;;5050887;28;20144;-75
2022/07/09 05:50:05;;;;;;;9.98;3.10;;;22.30;99.90;;;;;;5050939;28;20057;-76
2022/07/09 05:52:32;;;;;;;11.70;2.90;;;22.80;99.90;;;;;;5033758;28;20421;-75
2022/07/09 05:55:03;;;;;;;7.93;2.97;;;23.20;99.90;;;;;;5033539;28;20051;-75
2022/07/09 05:57:31;;;;;;;6.30;2.20;;;23.60;99.90;;;;;;5049710;28;20135;-75
2022/07/09 05:59:59;;;;;;;9.70;2.70;;;24.00;99.90;;;;;;5031881;28;20041;-74
2022/07/09 06:02:27;;;;;;;8.07;2.03;;;24.40;99.90;;;;;;5051184;28;20044;-74
2022/07/09 06:04:54;;;;;;;7.43;2.35;;;24.90;99.90;;;;;;5033142;28;20091;-75
2022/07/09 06:07:22;;;;;;;6.00;1.83;;;25.20;99.90;;;;;;5051085;28;20056;-74
2022/07/09 06:09:49;;;;;;;6.13;2.15;;;25.60;99.90;;;;;;5051017;28;20695;-75
2022/07/09 06:12:19;;;;;;;4.40;1.45;;;26.00;98.90;;;;;;5017007;28;20037;-74
2022/07/09 06:14:46;;;;;;;8.63;1.50;;;26.30;95.80;;;;;;5051564;28;20064;-74
2022/07/09 06:17:14;;;;;;;6.10;1.85;;;26.60;94.80;;;;;;5051072;28;20056;-74
2022/07/09 06:19:42;;;;;;;7.03;1.73;;;26.70;93.50;;;;;;5032813;28;20061;-75
2022/07/09 06:22:09;;;;;;;5.03;1.65;;;26.80;92.40;;;;;;5051027;28;20049;-74
2022/07/09 06:24:36;;;;;;;3.55;1.20;;;27.00;92.30;;;;;;5051480;28;20421;-74
2022/07/09 06:27:05;;;;;;;4.88;1.48;;;27.10;91.00;;;;;;5032120;28;20161;-74
2022/07/09 06:29:33;;;;;;;4.22;0.88;;;27.30;89.10;;;;;;5030571;28;20053;-74
2022/07/09 06:32:01;;;;;;;4.75;2.28;;;27.40;87.10;;;;;;5050800;28;20508;-74
2022/07/09 06:34:29;;;;;;;3.80;1.90;;;27.60;85.90;;;;;;5050145;28;20049;-76
2022/07/09 06:36:56;;;;;;;6.18;1.48;;;27.80;84.10;;;;;;5050601;28;20076;-75
2022/07/09 06:42:09;;;;;;;4.40;1.17;;;28.20;82.80;;;;;;5032501;28;20071;-74
2022/07/09 06:44:39;;;;;;;3.20;0.90;;;28.80;77.00;;;;;;5032885;28;20052;-75
2022/07/09 06:47:07;;;;;;;5.45;1.10;;;28.90;74.50;;;;;;5032481;28;20056;-76
2022/07/09 06:49:35;;;;;;;7.10;1.00;;;29.00;72.40;;;;;;5050347;28;20131;-76
2022/07/09 06:52:03;;;;;;;4.43;0.85;;;28.90;70.60;;;;;;5049995;28;20056;-77
2022/07/09 06:54:30;;;;;;;3.35;1.00;;;28.70;71.20;;;;;;5050129;28;20049;-75
2022/07/09 06:56:58;;;;;;;3.97;0.98;;;28.70;71.40;;;;;;5047822;28;20049;-77
2022/07/09 06:59:26;;;;;;;2.50;1.00;;;29.00;70.30;;;;;;5050490;28;20044;-76
2022/07/09 07:01:54;;;;;;;2.95;0.90;;;29.30;69.50;;;;;;5032580;28;20132;-76
2022/07/09 07:04:22;;;;;;;5.32;1.10;;;29.20;68.80;;;;;;5049790;28;20052;-75
2022/07/09 07:06:50;;;;;;;5.97;1.00;;;29.30;68.50;;;;;;5049708;28;20055;-76
2022/07/09 07:09:18;;;;;;;2.97;0.95;;;29.30;68.60;;;;;;5049109;28;20053;-76
2022/07/09 07:11:48;;;;;;;4.93;1.33;;;29.70;66.00;;;;;;5031868;28;20053;-77
2022/07/09 07:14:16;;;;;;;4.80;0.90;;;29.70;65.10;;;;;;5032196;28;20045;-75
2022/07/09 07:16:44;;;;;;;2.70;1.17;;;29.40;64.60;;;;;;5015816;28;20045;-74
2022/07/09 07:19:13;;;;;;;2.75;2.28;;;29.30;64.50;;;;;;5051177;28;20072;-82
2022/07/09 07:21:41;;;;;;;9.23;8.35;;;28.90;66.00;;;;;;5048743;28;20440;-82
2022/07/09 07:24:09;;;;;;;3.65;1.13;;;28.80;65.40;;;;;;5050733;28;20045;-82
2022/07/09 07:26:36;;;;;;;1.45;0.73;;;29.30;64.50;;;;;;5050082;28;20351;-82
2022/07/09 07:29:04;;;;;;;4.05;1.23;;;29.90;62.90;;;;;;5049968;28;20053;-83
2022/07/09 07:31:32;;;;;;;3.20;0.88;;;30.10;62.30;;;;;;5035272;28;20052;-85
2022/07/09 07:34:00;;;;;;;3.63;1.10;;;30.30;62.10;;;;;;5033745;28;20052;-83
2022/07/09 07:36:29;;;;;;;3.67;0.90;;;31.10;60.00;;;;;;5034638;28;20041;-85
2022/07/09 07:38:57;;;;;;;3.00;0.63;;;31.40;59.60;;;;;;5050533;28;20053;-84
2022/07/09 07:41:24;;;;;;;5.43;3.97;;;30.60;58.00;;;;;;5015961;28;20057;-84
2022/07/09 07:43:52;;;;;;;3.88;1.02;;;29.20;60.10;;;;;;5018000;28;20060;-85
2022/07/09 07:46:22;;;;;;;6.70;1.10;;;28.00;63.60;;;;;;5034477;28;20563;-83
2022/07/09 07:48:50;;;;;;;3.15;0.90;;;27.20;66.10;;;;;;5052853;28;20071;-83
2022/07/09 07:51:17;;;;;;;3.03;1.20;;;26.70;67.60;;;;;;5034100;28;20037;-83
2022/07/09 07:53:46;;;;;;;4.85;1.00;;;26.80;69.80;;;;;;5054136;28;20052;-83
2022/07/09 07:56:14;;;;;;;3.45;1.02;;;27.70;67.70;;;;;;5035999;28;20053;-84
2022/07/09 07:58:41;;;;;;;2.90;0.98;;;28.00;66.60;;;;;;5032896;28;20127;-82
2022/07/09 08:01:09;;;;;;;4.10;1.00;;;28.20;66.10;;;;;;5033578;28;20643;-83
2022/07/09 08:03:36;;;;;;;4.38;0.80;;;28.30;65.80;;;;;;5052155;28;20075;-82
2022/07/09 08:06:04;;;;;;;12.57;6.63;;;28.20;65.50;;;;;;5052285;28;20048;-83
2022/07/09 08:08:31;;;;;;;6.82;1.38;;;27.90;65.10;;;;;;5051813;28;20049;-80
2022/07/09 08:11:02;;;;;;;3.38;0.80;;;27.30;65.80;;;;;;5052246;28;20057;-82
2022/07/09 08:13:30;;;;;;;3.25;1.70;;;26.80;66.80;;;;;;5052507;28;20048;-83
2022/07/09 08:15:58;;;;;;;7.82;1.40;;;26.60;67.60;;;;;;5051254;28;20143;-83
2022/07/09 08:18:26;;;;;;;4.00;0.95;;;26.40;68.30;;;;;;5033660;28;20474;-83
2022/07/09 08:20:53;;;;;;;3.65;1.38;;;26.20;69.00;;;;;;5024651;28;20055;-82
2022/07/09 08:23:21;;;;;;;3.35;0.90;;;26.10;69.40;;;;;;5040488;28;20033;-83
2022/07/09 08:25:49;;;;;;;4.68;0.70;;;25.90;69.60;;;;;;5051639;28;20047;-87
2022/07/09 08:28:19;;;;;;;4.55;1.00;;;25.70;70.10;;;;;;5008670;28;20045;-84
2022/07/09 08:30:46;;;;;;;9.07;1.17;;;25.60;70.50;;;;;;5047739;28;20126;-82
2022/07/09 08:33:13;;;;;;;5.25;1.58;;;26.40;69.90;;;;;;5027533;28;20084;-83
2022/07/09 08:35:41;;;;;;;4.28;2.05;;;27.10;67.90;;;;;;5029200;28;20049;-86
2022/07/09 08:38:09;;;;;;;5.05;0.90;;;27.80;66.80;;;;;;5015446;28;20044;-86
2022/07/09 08:40:38;;;;;;;2.17;1.17;;;28.20;65.30;;;;;;5039440;28;20057;-86
2022/07/09 08:43:06;;;;;;;2.53;1.08;;;28.00;63.90;;;;;;5029581;28;20037;-87
2022/07/09 08:45:38;;;;;;;4.18;1.00;;;28.80;63.40;;;;;;5050974;28;20118;-86
2022/07/09 08:48:14;;;;;;;6.85;1.20;;;29.20;60.90;;;;;;5029862;28;20413;-88
2022/07/09 08:50:42;;;;;;;4.93;1.42;;;29.80;59.90;;;;;;5045836;28;20574;-80
2022/07/09 08:53:11;;;;;;;7.20;1.40;;;31.20;57.90;;;;;;5046322;28;20066;-80
2022/07/09 08:55:39;;;;;;;2.05;1.00;;;32.10;56.30;;;;;;5049398;28;20059;-82
2022/07/09 08:58:07;;;;;;;5.95;1.17;;;31.50;55.00;;;;;;5025478;28;20095;-82
2022/07/09 09:00:37;;;;;;;5.80;1.50;;;30.00;57.20;;;;;;5047242;28;20045;-81
2022/07/09 09:03:05;;;;;;;2.95;1.08;;;28.90;59.30;;;;;;5047341;28;20051;-81
2022/07/09 09:05:35;;;;;;;2.45;0.77;;;28.40;59.80;;;;;;5047987;28;20044;-83
2022/07/09 09:08:18;;;;;;;4.47;1.10;;;28.20;60.80;;;;;;5044171;28;20041;-82
2022/07/09 09:10:48;;;;;;;1.83;1.30;;;28.20;61.40;;;;;;5046611;28;20148;-83
2022/07/09 09:13:18;;;;;;;1.88;0.90;;;28.00;61.70;;;;;;5026311;28;20323;-82
2022/07/09 09:15:47;;;;;;;2.45;1.02;;;27.60;62.60;;;;;;5049565;28;20060;-83
2022/07/09 09:18:15;;;;;;;2.63;1.83;;;27.50;63.10;;;;;;5047516;28;20037;-82
2022/07/09 09:20:46;;;;;;;2.47;0.95;;;27.90;61.70;;;;;;5047729;28;20563;-82
2022/07/09 09:23:18;;;;;;;8.10;1.20;;;28.40;60.90;;;;;;5010632;28;20496;-81
2022/07/09 09:25:45;;;;;;;7.53;0.85;;;28.40;59.80;;;;;;5045177;28;20052;-82
2022/07/09 09:28:14;;;;;;;4.75;1.20;;;27.70;60.90;;;;;;5026453;28;20045;-81
2022/07/09 09:30:44;;;;;;;4.30;1.45;;;27.00;63.00;;;;;;5047451;28;20045;-80
2022/07/09 09:33:16;;;;;;;6.43;0.98;;;26.60;63.10;;;;;;5028328;28;20052;-81
2022/07/09 09:35:45;;;;;;;6.45;1.35;;;26.20;63.40;;;;;;5033911;28;20052;-82
2022/07/09 09:38:13;;;;;;;1.67;0.80;;;26.10;64.20;;;;;;5048627;28;20049;-81
2022/07/09 09:40:47;;;;;;;8.55;1.88;;;26.30;64.00;;;;;;5047768;28;20053;-81
2022/07/09 09:43:20;;;;;;;7.45;1.38;;;26.80;63.10;;;;;;5028744;28;20049;-80
2022/07/09 09:45:50;;;;;;;3.28;0.80;;;27.00;62.90;;;;;;5030151;28;20064;-80
2022/07/09 09:48:21;;;;;;;3.13;0.95;;;28.20;61.10;;;;;;5045127;28;20425;-80
2022/07/09 09:50:50;;;;;;;4.13;0.85;;;29.40;58.70;;;;;;5049090;28;20523;-79
2022/07/09 09:53:18;;;;;;;1.17;0.90;;;29.40;58.20;;;;;;5046912;28;20052;-78
2022/07/09 09:55:47;;;;;;;1.83;1.00;;;28.90;58.40;;;;;;5049329;28;20077;-78
2022/07/09 09:58:15;;;;;;;4.53;1.33;;;28.00;60.20;;;;;;5029179;28;20417;-78
2022/07/09 10:00:43;;;;;;;2.75;0.95;;;27.40;62.00;;;;;;5027799;28;20053;-77
2022/07/09 10:03:13;;;;;;;3.90;0.90;;;27.00;63.20;;;;;;5048622;28;20049;-77
2022/07/09 10:05:43;;;;;;;3.15;0.80;;;26.70;64.30;;;;;;5046738;28;20049;-78
2022/07/09 10:08:11;;;;;;;1.92;0.93;;;26.60;65.10;;;;;;5047038;28;20049;-79
2022/07/09 10:10:39;;;;;;;3.80;1.23;;;26.70;65.80;;;;;;5046642;28;20611;-77
2022/07/09 10:13:06;;;;;;;1.88;0.80;;;27.70;64.40;;;;;;5044088;28;20521;-79
2022/07/09 10:15:34;;;;;;;2.58;0.90;;;28.40;61.80;;;;;;5042563;28;20438;-76
2022/07/09 10:18:11;;;;;;;8.50;1.38;;;28.20;62.10;;;;;;5024902;28;20045;-77
2022/07/09 10:20:38;;;;;;;4.30;1.10;;;28.50;62.20;;;;;;5047836;28;20053;-79
2022/07/09 10:23:08;;;;;;;3.65;1.10;;;29.00;60.70;;;;;;5047254;28;20523;-79
2022/07/09 10:25:46;;;;;;;1.33;0.93;;;29.50;59.60;;;;;;5028442;28;20187;-78
2022/07/09 10:28:24;;;;;;;10.35;1.48;;;29.90;59.30;;;;;;5030284;28;20059;-78
2022/07/09 10:31:12;;;;;;;3.72;1.15;;;29.90;58.10;;;;;;5028334;28;20412;-79
2022/07/09 10:33:53;;;;;;;8.27;0.90;;;29.20;59.00;;;;;;5047146;28;20496;-78
2022/07/09 10:36:39;;;;;;;5.88;1.00;;;29.10;59.50;;;;;;5046441;28;20433;-80
2022/07/09 10:39:15;;;;;;;4.63;1.30;;;29.80;58.90;;;;;;5046556;28;20057;-80
2022/07/09 10:41:59;;;;;;;8.85;6.63;;;31.00;58.10;;;;;;5046754;28;20168;-84
2022/07/09 10:44:45;;;;;;;2.03;1.02;;;32.60;55.50;;;;;;5046557;28;20516;-85
2022/07/09 10:47:21;;;;;;;3.42;1.08;;;32.70;53.50;;;;;;5050578;28;20060;-85
2022/07/09 10:50:08;;;;;;;2.15;0.70;;;33.10;53.40;;;;;;5052246;28;20064;-85
2022/07/09 10:52:41;;;;;;;2.08;0.75;;;34.20;51.70;;;;;;5047821;28;20491;-83
2022/07/09 10:55:14;;;;;;;1.98;1.15;;;33.70;50.80;;;;;;5046842;28;20331;-85
2022/07/09 10:57:42;;;;;;;2.22;0.98;;;33.60;52.00;;;;;;5030173;28;20049;-83
2022/07/09 11:00:28;;;;;;;2.75;1.17;;;33.90;51.00;;;;;;5051634;28;20059;-81
2022/07/09 11:03:07;;;;;;;1.95;0.80;;;32.60;51.50;;;;;;5053095;28;20052;-84
2022/07/09 11:05:45;;;;;;;2.67;1.88;;;30.50;54.60;;;;;;5030460;28;20120;-83
2022/07/09 11:08:19;;;;;;;1.52;1.05;;;28.90;57.90;;;;;;5027892;28;20420;-83
2022/07/09 11:10:58;;;;;;;3.42;1.33;;;28.00;59.50;;;;;;5037168;28;20144;-78
2022/07/09 11:13:41;;;;;;;3.00;1.20;;;27.30;61.20;;;;;;5029023;28;20088;-78
2022/07/09 11:16:22;;;;;;;16.60;1.75;;;26.50;65.70;;;;;;5047096;28;20052;-82
2022/07/09 11:19:14;;;;;;;4.55;2.28;;;25.40;72.30;;;;;;5046256;28;20049;-83
2022/07/09 11:21:44;;;;;;;7.85;1.42;;;24.00;82.70;;;;;;5035483;28;20047;-83
2022/07/09 11:24:18;;;;;;;6.25;1.42;;;22.80;88.80;;;;;;5035152;28;20041;-84
2022/07/09 11:26:50;;;;;;;4.28;1.67;;;22.40;92.00;;;;;;5019285;28;20304;-84
2022/07/09 11:29:25;;;;;;;7.50;1.55;;;22.30;95.30;;;;;;5050912;28;20139;-85
2022/07/09 11:31:53;;;;;;;4.80;1.50;;;22.40;99.50;;;;;;5044203;28;20060;-84
2022/07/09 11:34:21;;;;;;;4.88;1.63;;;22.70;99.90;;;;;;5029692;28;20049;-84
2022/07/09 11:36:52;;;;;;;5.93;1.70;;;23.10;99.90;;;;;;5047940;28;20057;-84
2022/07/09 11:39:24;;;;;;;3.63;1.20;;;23.70;98.60;;;;;;5022486;28;20088;-87
2022/07/09 11:41:54;;;;;;;2.33;1.17;;;24.20;95.30;;;;;;5048148;28;20243;-86
2022/07/09 11:44:24;;;;;;;3.15;1.15;;;24.90;92.40;;;;;;5051033;28;20081;-84
2022/07/09 11:47:07;;;;;;;1.95;1.20;;;25.30;91.50;;;;;;5049560;28;20355;-84
2022/07/09 11:49:37;;;;;;;3.90;2.08;;;25.30;91.00;;;;;;5054980;28;20523;-81
2022/07/09 11:52:06;;;;;;;3.92;1.42;;;24.90;91.60;;;;;;5038539;28;20088;-80
2022/07/09 11:54:33;;;;;;;4.50;1.88;;;24.60;92.60;;;;;;5035815;28;20049;-83
2022/07/09 11:57:02;;;;;;;5.95;1.70;;;24.30;98.00;;;;;;5054303;28;20571;-83
2022/07/09 11:59:33;;;;;;;4.20;2.05;;;23.70;99.90;;;;;;5048990;28;20072;-81
2022/07/09 12:02:02;;;;;;;10.35;2.00;;;23.20;99.90;;;;;;5053583;28;20049;-80
2022/07/09 12:04:31;;;;;;;9.90;2.00;;;22.70;99.90;;;;;;5051131;28;20048;-84
2022/07/09 12:06:59;;;;;;;6.25;1.42;;;22.20;99.90;;;;;;5050630;28;20106;-82
2022/07/09 12:09:31;;;;;;;6.97;1.67;;;21.90;99.90;;;;;;5043870;28;20056;-84
2022/07/09 12:12:00;;;;;;;10.80;1.97;;;21.90;99.90;;;;;;5053199;28;20129;-82
2022/07/09 12:14:29;;;;;;;7.15;1.63;;;22.00;99.90;;;;;;5052796;28;20114;-85
2022/07/09 12:16:58;;;;;;;4.22;1.70;;;22.30;99.90;;;;;;5049933;28;20155;-82
2022/07/09 12:19:29;;;;;;;4.85;1.52;;;22.50;99.90;;;;;;5055385;28;20052;-85
2022/07/09 12:21:56;;;;;;;5.07;1.48;;;22.90;99.90;;;;;;5053289;28;20103;-86
2022/07/09 12:24:34;;;;;;;2.30;1.63;;;23.60;99.90;;;;;;5050902;28;20041;-85
2022/07/09 12:27:02;;;;;;;1.40;1.00;;;25.60;99.90;;;;;;5051870;28;20061;-85
2022/07/09 12:29:31;;;;;;;5.10;1.30;;;28.20;94.60;;;;;;5029307;28;20048;-83
2022/07/09 12:31:59;;;;;;;2.85;1.17;;;29.50;85.50;;;;;;5048074;28;20056;-84
2022/07/09 12:34:27;;;;;;;4.43;1.58;;;30.80;75.10;;;;;;5047669;28;20508;-82
2022/07/09 12:36:54;;;;;;;1.42;1.10;;;31.50;71.70;;;;;;5048017;28;20052;-84
2022/07/09 12:39:22;;;;;;;1.88;1.38;;;32.40;63.90;;;;;;5046606;28;20059;-85
2022/07/09 12:41:49;;;;;;;4.30;1.58;;;33.10;59.30;;;;;;5046734;28;20079;-83
2022/07/09 12:44:17;;;;;;;4.35;1.35;;;33.40;57.90;;;;;;5045473;28;20136;-80
2022/07/09 12:46:46;;;;;;;3.35;1.20;;;33.60;57.60;;;;;;5027917;28;20064;-84
2022/07/09 12:49:13;;;;;;;15.57;2.72;;;34.30;56.10;;;;;;5045450;28;20183;-82
2022/07/09 12:51:41;;;;;;;4.85;1.13;;;34.60;55.10;;;;;;5043714;28;20080;-80
2022/07/09 12:54:08;;;;;;;5.40;1.27;;;34.30;55.40;;;;;;5027389;28;20045;-83
2022/07/09 12:56:36;;;;;;;4.55;1.30;;;34.70;54.10;;;;;;5044355;28;20053;-76
2022/07/09 12:59:05;;;;;;;6.75;1.50;;;35.20;52.40;;;;;;5024504;28;20064;-78